createdAt,value
2023-02-24T00:00:32.437Z,13.17
2023-02-24T00:03:06.437Z,14.37
2023-02-24T00:05:37.026Z,17.90
2023-02-24T00:08:05.293Z,17.97
2023-02-24T00:10:34.113Z,13.90
2023-02-24T00:13:02.376Z,15.97
2023-02-24T00:15:30.648Z,17.87
2023-02-24T00:17:59.329Z,18.67
2023-02-24T00:20:33.409Z,19.47
2023-02-24T00:23:01.687Z,18.73
2023-02-24T00:25:29.901Z,18.27
2023-02-24T00:30:55.727Z,25.40
2023-02-24T00:33:24.634Z,26.83
2023-02-24T00:35:55.310Z,25.30
2023-02-24T00:38:25.598Z,26.70
2023-02-24T00:40:55.574Z,28.37
2023-02-24T00:43:23.893Z,25.50
2023-02-24T00:45:52.259Z,25.17
2023-02-24T00:48:22.386Z,26.43
2023-02-24T00:50:52.261Z,26.27
2023-02-24T00:53:22.124Z,24.53
2023-02-24T00:56:00.470Z,24.90
2023-02-24T00:58:29.938Z,26.77
2023-02-24T01:00:58.330Z,25.60
2023-02-24T01:03:29.935Z,23.17
2023-02-24T01:06:12.992Z,32.90
2023-02-24T01:08:47.618Z,25.63
2023-02-24T01:11:34.734Z,24.57
2023-02-24T01:14:06.459Z,27.63
2023-02-24T01:16:34.854Z,24.67
2023-02-24T01:19:03.162Z,27.17
2023-02-24T01:21:31.509Z,27.53
2023-02-24T01:24:01.145Z,23.63
2023-02-24T01:26:30.848Z,25.87
2023-02-24T01:28:59.136Z,27.30
2023-02-24T01:31:28.790Z,26.77
2023-02-24T01:33:57.294Z,27.80
2023-02-24T01:36:27.471Z,22.67
2023-02-24T01:38:55.968Z,25.90
2023-02-24T01:41:27.737Z,24.30
2023-02-24T01:44:06.981Z,30.90
2023-02-24T01:46:38.833Z,24.07
2023-02-24T01:49:12.605Z,23.03
2023-02-24T01:51:47.074Z,21.27
2023-02-24T01:54:20.778Z,23.70
2023-02-24T01:56:52.678Z,23.13
2023-02-24T01:59:23.507Z,22.87
2023-02-24T02:01:55.327Z,24.17
2023-02-24T02:04:35.450Z,26.33
2023-02-24T02:07:04.260Z,26.47
2023-02-24T02:09:34.041Z,27.37
2023-02-24T02:12:03.716Z,25.73
2023-02-24T02:14:33.150Z,24.50
2023-02-24T02:17:16.608Z,26.27
2023-02-24T02:20:27.623Z,25.60
2023-02-24T02:23:35.814Z,28.53
2023-02-24T02:26:48.299Z,23.67
2023-02-24T02:29:46.279Z,30.37
2023-02-24T02:32:53.158Z,27.43
2023-02-24T02:35:26.835Z,29.53
2023-02-24T02:38:03.319Z,28.27
2023-02-24T02:40:41.156Z,24.97
2023-02-24T02:43:17.231Z,28.70
2023-02-24T02:45:50.991Z,27.37
2023-02-24T02:48:25.673Z,26.27
2023-02-24T02:51:04.398Z,25.17
2023-02-24T02:53:39.118Z,27.53
2023-02-24T02:56:15.345Z,27.33
2023-02-24T02:58:47.944Z,28.50
2023-02-24T03:01:21.659Z,28.00
2023-02-24T03:04:27.662Z,29.70
2023-02-24T03:07:06.221Z,27.90
2023-02-24T03:09:40.543Z,24.90
2023-02-24T03:12:14.672Z,32.57
2023-02-24T03:14:51.048Z,30.77
2023-02-24T03:17:47.788Z,26.10
2023-02-24T03:20:24.090Z,25.93
2023-02-24T03:23:00.884Z,25.27
2023-02-24T03:25:39.159Z,27.50
2023-02-24T03:28:17.611Z,29.53
2023-02-24T03:30:53.597Z,27.73
2023-02-24T03:33:26.889Z,26.70
2023-02-24T03:36:01.651Z,25.63
2023-02-24T03:38:38.286Z,31.40
2023-02-24T03:41:11.270Z,26.03
2023-02-24T03:43:46.023Z,27.77
2023-02-24T03:46:16.966Z,26.23
2023-02-24T03:48:52.784Z,30.90
2023-02-24T03:51:24.233Z,26.47
2023-02-24T03:54:20.549Z,26.20
2023-02-24T03:57:02.512Z,23.27
2023-02-24T03:59:43.353Z,27.10
2023-02-24T04:02:20.371Z,22.27
2023-02-24T04:04:59.222Z,21.97
2023-02-24T04:07:42.281Z,24.70
2023-02-24T04:10:21.647Z,30.10
2023-02-24T04:12:57.503Z,30.37
2023-02-24T04:15:30.860Z,28.67
2023-02-24T04:18:04.270Z,29.40
2023-02-24T04:20:39.896Z,31.13
2023-02-24T04:23:15.475Z,27.13
2023-02-24T04:25:50.681Z,28.37
2023-02-24T04:28:21.262Z,25.17
2023-02-24T04:30:55.409Z,28.70
2023-02-24T04:33:24.621Z,22.57
2023-02-24T04:35:54.892Z,24.80
2023-02-24T04:38:24.229Z,28.07
2023-02-24T04:40:54.383Z,27.87
2023-02-24T04:43:22.969Z,30.87
2023-02-24T04:45:51.571Z,30.07
2023-02-24T04:48:20.348Z,29.77
2023-02-24T04:50:55.006Z,26.67
2023-02-24T04:53:27.195Z,27.20
2023-02-24T04:55:57.127Z,25.37
2023-02-24T04:58:28.098Z,22.93
2023-02-24T05:00:57.439Z,24.83
2023-02-24T05:03:28.281Z,27.20
2023-02-24T05:06:00.893Z,23.43
2023-02-24T05:08:31.805Z,21.73
2023-02-24T05:11:03.821Z,23.20
2023-02-24T05:13:33.625Z,23.40
2023-02-24T05:16:07.401Z,24.60
2023-02-24T05:18:37.037Z,27.67
2023-02-24T05:21:26.458Z,30.90
2023-02-24T05:23:55.907Z,27.03
2023-02-24T05:26:26.274Z,29.77
2023-02-24T05:28:56.676Z,29.67
2023-02-24T05:31:28.346Z,28.97
2023-02-24T05:33:59.194Z,21.13
2023-02-24T05:36:30.545Z,23.70
2023-02-24T05:38:59.430Z,26.47
2023-02-24T05:41:32.587Z,26.47
2023-02-24T05:44:04.849Z,24.20
2023-02-24T05:46:36.401Z,23.70
2023-02-24T05:49:09.571Z,22.97
2023-02-24T05:51:43.362Z,30.47
2023-02-24T05:54:14.806Z,26.57
2023-02-24T05:56:44.484Z,27.53
2023-02-24T05:59:18.257Z,22.10
2023-02-24T06:01:46.586Z,25.40
2023-02-24T06:04:27.865Z,29.30
2023-02-24T06:06:56.091Z,31.33
2023-02-24T06:09:24.295Z,26.60
2023-02-24T06:11:54.301Z,27.67
2023-02-24T06:14:22.628Z,22.33
2023-02-24T06:16:51.005Z,18.07
2023-02-24T06:19:20.711Z,20.77
2023-02-24T06:21:49.389Z,20.67
2023-02-24T06:24:18.606Z,19.07
2023-02-24T06:26:49.271Z,20.60
2023-02-24T06:29:19.405Z,24.23
2023-02-24T06:31:48.633Z,20.50
2023-02-24T06:34:18.336Z,24.53
2023-02-24T06:36:47.033Z,27.20
2023-02-24T06:39:16.934Z,24.87
2023-02-24T06:41:45.300Z,21.97
2023-02-24T06:44:13.737Z,24.23
2023-02-24T06:46:43.368Z,21.17
2023-02-24T06:49:12.633Z,22.20
2023-02-24T06:51:43.402Z,28.87
2023-02-24T06:54:12.720Z,30.53
2023-02-24T06:56:41.797Z,25.87
2023-02-24T06:59:12.848Z,28.83
2023-02-24T07:01:47.148Z,29.30
2023-02-24T07:04:19.023Z,27.40
2023-02-24T07:07:03.313Z,27.53
2023-02-24T07:09:32.542Z,30.10
2023-02-24T07:12:02.944Z,29.00
2023-02-24T07:14:31.868Z,26.43
2023-02-24T07:17:00.685Z,28.47
2023-02-24T07:19:32.998Z,25.13
2023-02-24T07:22:03.558Z,28.93
2023-02-24T07:24:36.470Z,25.67
2023-02-24T07:27:07.548Z,24.97
2023-02-24T07:29:37.716Z,146.23
2023-02-24T07:32:09.675Z,28.90
2023-02-24T07:34:40.956Z,30.90
2023-02-24T07:37:10.317Z,26.50
2023-02-24T07:39:42.951Z,30.37
2023-02-24T07:42:13.708Z,28.70
2023-02-24T07:44:49.294Z,27.30
2023-02-24T07:47:21.462Z,30.83
2023-02-24T07:49:51.189Z,27.57
2023-02-24T07:52:19.408Z,27.73
2023-02-24T07:54:49.696Z,26.80
2023-02-24T07:57:18.905Z,29.67
2023-02-24T07:59:48.196Z,28.87
2023-02-24T08:02:18.321Z,30.97
2023-02-24T08:04:51.396Z,31.57
2023-02-24T08:07:24.815Z,30.50
2023-02-24T08:10:24.154Z,30.60
2023-02-24T08:12:56.848Z,25.93
2023-02-24T08:15:33.837Z,30.77
2023-02-24T08:18:02.679Z,34.33
2023-02-24T08:20:36.279Z,30.37
2023-02-24T08:23:08.759Z,32.37
2023-02-24T08:25:41.391Z,32.87
2023-02-24T08:28:11.576Z,34.10
2023-02-24T08:30:45.457Z,32.23
2023-02-24T08:33:19.901Z,30.03
2023-02-24T08:35:57.893Z,34.87
2023-02-24T08:38:39.624Z,33.63
2023-02-24T08:41:13.148Z,35.20
2023-02-24T08:43:42.166Z,38.70
2023-02-24T08:46:26.071Z,36.73
2023-02-24T08:49:00.718Z,36.57
2023-02-24T08:51:34.520Z,39.83
2023-02-24T08:54:10.854Z,38.07
2023-02-24T08:56:43.343Z,41.67
2023-02-24T08:59:29.066Z,37.93
2023-02-24T09:02:12.906Z,39.30
2023-02-24T09:04:41.139Z,37.67
2023-02-24T09:07:15.970Z,40.33
2023-02-24T09:09:45.627Z,38.80
2023-02-24T09:12:22.052Z,38.33
2023-02-24T09:14:55.379Z,37.03
2023-02-24T09:17:49.891Z,38.53
2023-02-24T09:20:38.551Z,39.73
2023-02-24T09:23:08.671Z,35.70
2023-02-24T09:25:44.916Z,36.97
2023-02-24T09:28:18.074Z,40.40
2023-02-24T09:30:54.898Z,39.20
2023-02-24T09:33:26.544Z,40.57
2023-02-24T09:36:09.541Z,44.50
2023-02-24T09:38:57.507Z,41.60
2023-02-24T09:41:33.603Z,44.30
2023-02-24T09:44:07.622Z,37.60
2023-02-24T09:46:53.739Z,41.73
2023-02-24T09:49:25.847Z,42.80
2023-02-24T09:52:00.481Z,47.40
2023-02-24T09:54:33.356Z,38.53
2023-02-24T09:57:09.227Z,45.63
2023-02-24T10:00:01.119Z,48.07
2023-02-24T10:02:47.097Z,49.43
2023-02-24T10:05:27.378Z,40.50
2023-02-24T10:07:58.068Z,47.63
2023-02-24T10:10:35.775Z,43.17
2023-02-24T10:13:14.982Z,39.83
2023-02-24T10:15:58.979Z,45.67
2023-02-24T10:18:34.658Z,35.83
2023-02-24T10:21:16.644Z,36.70
2023-02-24T10:24:08.941Z,40.47
2023-02-24T10:26:59.734Z,38.10
2023-02-24T10:29:46.285Z,41.70
2023-02-24T10:32:25.006Z,44.60
2023-02-24T10:34:54.076Z,46.53
2023-02-24T10:37:29.551Z,42.97
2023-02-24T10:40:09.462Z,43.40
2023-02-24T10:42:45.704Z,40.90
2023-02-24T10:45:19.352Z,42.47
2023-02-24T10:47:57.694Z,40.13
2023-02-24T10:50:32.615Z,45.33
2023-02-24T10:53:34.280Z,41.90
2023-02-24T10:56:26.783Z,38.63
2023-02-24T10:59:22.147Z,40.10
2023-02-24T11:01:59.146Z,40.17
2023-02-24T11:04:53.861Z,41.73
2023-02-24T11:07:44.140Z,37.47
2023-02-24T11:10:26.136Z,37.53
2023-02-24T11:13:14.401Z,37.90
2023-02-24T11:16:03.775Z,29.07
2023-02-24T11:18:34.472Z,34.77
2023-02-24T11:21:05.905Z,35.17
2023-02-24T11:23:40.246Z,32.47
2023-02-24T11:26:17.616Z,33.67
2023-02-24T11:29:03.894Z,34.60
2023-02-24T11:31:59.568Z,32.00
2023-02-24T11:34:42.478Z,35.00
2023-02-24T11:37:34.487Z,32.93
2023-02-24T11:40:09.478Z,31.87
2023-02-24T11:42:43.712Z,33.47
2023-02-24T11:45:25.428Z,33.33
2023-02-24T11:48:00.287Z,34.00
2023-02-24T11:50:39.616Z,27.90
2023-02-24T11:53:23.831Z,34.53
2023-02-24T11:55:59.725Z,34.37
2023-02-24T11:58:36.831Z,35.03
2023-02-24T12:01:13.520Z,29.83
2023-02-24T12:03:52.244Z,37.70
2023-02-24T12:06:35.282Z,32.00
2023-02-24T12:09:10.308Z,36.20
2023-02-24T12:11:53.223Z,32.37
2023-02-24T12:14:28.696Z,40.37
2023-02-24T12:17:12.066Z,29.70
2023-02-24T12:19:54.562Z,40.23
2023-02-24T12:22:30.050Z,38.03
2023-02-24T12:24:58.654Z,40.47
2023-02-24T12:27:42.221Z,43.43
2023-02-24T12:30:49.639Z,47.73
2023-02-24T12:33:42.366Z,47.37
2023-02-24T12:36:23.704Z,43.17
2023-02-24T12:39:07.013Z,43.77
2023-02-24T12:41:53.775Z,44.57
2023-02-24T12:44:37.205Z,37.93
2023-02-24T12:47:11.736Z,37.90
2023-02-24T12:50:06.826Z,36.60
2023-02-24T12:52:50.848Z,39.73
2023-02-24T12:55:27.850Z,37.27
2023-02-24T12:58:09.387Z,34.87
2023-02-24T13:00:51.476Z,28.93
2023-02-24T13:03:37.183Z,35.00
2023-02-24T13:06:23.180Z,33.40
2023-02-24T13:08:59.909Z,34.77
2023-02-24T13:11:41.662Z,34.17
2023-02-24T13:14:20.747Z,27.37
2023-02-24T13:16:49.455Z,31.93
2023-02-24T13:19:23.350Z,30.53
2023-02-24T13:22:05.140Z,28.80
2023-02-24T13:24:34.450Z,28.77
2023-02-24T13:27:21.616Z,32.13
2023-02-24T13:29:51.979Z,29.93
2023-02-24T13:32:31.663Z,33.17
2023-02-24T13:35:02.585Z,34.33
2023-02-24T13:37:35.530Z,27.73
2023-02-24T13:40:23.276Z,27.57
2023-02-24T13:43:01.937Z,27.50
2023-02-24T13:45:31.892Z,25.53
2023-02-24T13:48:24.212Z,25.90
2023-02-24T13:51:21.170Z,27.27
2023-02-24T13:54:08.502Z,26.47
2023-02-24T13:56:44.999Z,51.37
2023-02-24T13:59:40.525Z,25.23
2023-02-24T14:02:16.794Z,22.40
2023-02-24T14:04:51.857Z,24.73
2023-02-24T14:07:23.965Z,24.87
2023-02-24T14:09:55.594Z,24.80
2023-02-24T14:12:28.989Z,23.53
2023-02-24T14:14:59.250Z,25.07
2023-02-24T14:17:32.708Z,26.67
2023-02-24T14:20:15.737Z,23.43
2023-02-24T14:22:49.379Z,25.10
2023-02-24T14:25:18.287Z,31.30
2023-02-24T14:27:49.998Z,30.17
2023-02-24T14:30:34.585Z,26.67
2023-02-24T14:33:04.291Z,29.37
2023-02-24T14:35:38.729Z,25.53
2023-02-24T14:38:07.339Z,26.37
2023-02-24T14:40:35.492Z,26.20
2023-02-24T14:43:04.676Z,23.67
2023-02-24T14:45:34.171Z,26.47
2023-02-24T14:48:02.361Z,25.60
2023-02-24T14:50:34.096Z,23.07
2023-02-24T14:53:06.966Z,27.03
2023-02-24T14:55:38.682Z,26.67
2023-02-24T14:58:14.596Z,26.93
2023-02-24T15:00:50.876Z,27.67
2023-02-24T15:03:24.558Z,31.87
2023-02-24T15:05:58.084Z,32.23
2023-02-24T15:08:36.256Z,25.90
2023-02-24T15:11:12.687Z,25.80
2023-02-24T15:13:43.709Z,26.67
2023-02-24T15:16:20.126Z,22.80
2023-02-24T15:18:52.370Z,28.60
2023-02-24T15:21:25.016Z,26.03
2023-02-24T15:24:01.417Z,22.90
2023-02-24T15:26:32.460Z,27.27
2023-02-24T15:29:14.568Z,26.83
2023-02-24T15:31:51.547Z,20.93
2023-02-24T15:34:24.008Z,27.07
2023-02-24T15:36:56.412Z,20.90
2023-02-24T15:39:31.226Z,21.37
2023-02-24T15:42:09.552Z,23.30
2023-02-24T15:44:38.210Z,20.93
2023-02-24T15:47:24.506Z,21.27
2023-02-24T15:49:53.851Z,20.50
2023-02-24T15:52:25.808Z,19.53
2023-02-24T15:54:56.548Z,27.13
2023-02-24T15:57:25.074Z,22.63
2023-02-24T15:59:53.611Z,26.33
2023-02-24T16:02:24.837Z,18.50
2023-02-24T16:04:53.711Z,24.50
2023-02-24T16:07:23.952Z,20.90
2023-02-24T16:09:54.707Z,19.23
2023-02-24T16:12:28.738Z,20.13
2023-02-24T16:15:02.977Z,21.43
2023-02-24T16:17:38.710Z,26.10
2023-02-24T16:20:11.891Z,23.37
2023-02-24T16:22:40.048Z,33.17
2023-02-24T16:25:09.209Z,24.37
2023-02-24T16:27:37.651Z,28.50
2023-02-24T16:30:07.688Z,25.07
2023-02-24T16:32:38.731Z,23.67
2023-02-24T16:35:11.199Z,25.00
2023-02-24T16:37:39.591Z,21.30
2023-02-24T16:40:37.576Z,23.67
2023-02-24T16:43:06.141Z,23.23
2023-02-24T16:45:35.723Z,25.03
2023-02-24T16:48:08.982Z,23.13
2023-02-24T16:50:41.020Z,65.27
2023-02-24T16:53:15.912Z,49.33
2023-02-24T16:55:44.579Z,28.67
2023-02-24T16:58:13.897Z,34.00
2023-02-24T17:00:44.664Z,32.60
2023-02-24T17:03:19.453Z,29.40
2023-02-24T17:05:57.736Z,24.93
2023-02-24T17:08:26.196Z,35.70
2023-02-24T17:10:54.533Z,30.83
2023-02-24T17:13:23.564Z,24.37
2023-02-24T17:15:55.119Z,33.07
2023-02-24T17:18:25.598Z,32.20
2023-02-24T17:20:54.805Z,24.53
2023-02-24T17:23:23.430Z,27.90
2023-02-24T17:25:54.699Z,31.97
2023-02-24T17:28:23.319Z,27.20
2023-02-24T17:30:51.784Z,29.33
2023-02-24T17:33:20.071Z,31.60
2023-02-24T17:35:49.633Z,27.30
2023-02-24T17:38:19.887Z,29.30
2023-02-24T17:40:48.865Z,30.43
2023-02-24T17:43:17.305Z,28.30
2023-02-24T17:45:47.808Z,31.27
2023-02-24T17:48:17.011Z,26.50
2023-02-24T17:50:46.684Z,26.50
2023-02-24T17:53:16.731Z,29.43
2023-02-24T17:56:01.355Z,29.37
2023-02-24T17:58:30.206Z,26.23
2023-02-24T18:00:58.526Z,25.10
2023-02-24T18:03:26.957Z,28.03
2023-02-24T18:06:00.545Z,27.83
2023-02-24T18:08:30.632Z,26.93
2023-02-24T18:10:59.852Z,24.87
2023-02-24T18:13:28.942Z,28.60
2023-02-24T18:15:58.614Z,26.50
2023-02-24T18:18:27.938Z,25.50
2023-02-24T18:21:01.596Z,25.23
2023-02-24T18:23:31.628Z,24.13
2023-02-24T18:26:08.996Z,28.47
2023-02-24T18:28:38.381Z,28.97
2023-02-24T18:31:13.241Z,30.10
2023-02-24T18:33:41.758Z,25.03
2023-02-24T18:36:11.104Z,26.93
2023-02-24T18:38:41.028Z,29.73
2023-02-24T18:41:12.563Z,24.80
2023-02-24T18:43:41.191Z,28.70
2023-02-24T18:46:14.080Z,26.07
2023-02-24T18:48:44.496Z,25.00
2023-02-24T18:51:13.882Z,27.07
2023-02-24T18:53:43.626Z,26.63
2023-02-24T18:56:17.693Z,23.60
2023-02-24T18:58:47.089Z,30.10
2023-02-24T19:01:19.753Z,28.30
2023-02-24T19:03:51.244Z,26.60
2023-02-24T19:06:22.155Z,28.80
2023-02-24T19:08:59.361Z,28.80
2023-02-24T19:11:28.120Z,27.03
2023-02-24T19:13:56.826Z,21.47
2023-02-24T19:16:25.670Z,22.63
2023-02-24T19:18:56.521Z,19.63
2023-02-24T19:21:26.456Z,17.40
2023-02-24T19:23:56.354Z,15.70
2023-02-24T19:26:27.191Z,13.20
2023-02-24T19:28:58.478Z,15.70
2023-02-24T19:31:29.483Z,18.70
2023-02-24T19:34:00.768Z,13.73
2023-02-24T19:36:29.775Z,11.07
2023-02-24T19:38:59.529Z,10.27
2023-02-24T19:41:28.416Z,13.73
2023-02-24T19:43:56.996Z,13.13
2023-02-24T19:46:25.603Z,14.17
2023-02-24T19:48:54.095Z,10.07
2023-02-24T19:51:24.781Z,12.57
2023-02-24T19:53:54.136Z,17.93
2023-02-24T19:56:25.844Z,12.87
2023-02-24T19:58:55.019Z,12.03
2023-02-24T20:01:25.153Z,9.83
2023-02-24T20:03:56.533Z,14.50
2023-02-24T20:06:30.363Z,10.83
2023-02-24T20:09:00.440Z,10.67
2023-02-24T20:11:33.204Z,12.70
2023-02-24T20:14:01.382Z,10.10
2023-02-24T20:16:32.632Z,9.40
2023-02-24T20:19:01.594Z,9.70
2023-02-24T20:21:32.135Z,7.20
2023-02-24T20:24:01.466Z,7.70
2023-02-24T20:26:31.977Z,8.57
2023-02-24T20:29:01.407Z,8.50
2023-02-24T20:31:29.728Z,7.87
2023-02-24T20:33:58.029Z,9.60
2023-02-24T20:36:28.417Z,9.07
2023-02-24T20:38:59.512Z,15.27
2023-02-24T20:41:30.919Z,13.03
2023-02-24T20:44:01.021Z,13.53
2023-02-24T20:46:31.779Z,12.23
2023-02-24T20:49:02.636Z,9.50
2023-02-24T20:51:32.139Z,7.27
2023-02-24T20:54:01.088Z,9.07
2023-02-24T20:56:35.718Z,6.57
2023-02-24T20:59:07.528Z,8.77
2023-02-24T21:01:36.838Z,8.13
2023-02-24T21:04:10.533Z,7.03
2023-02-24T21:06:38.751Z,5.10
2023-02-24T21:09:07.493Z,9.37
2023-02-24T21:11:37.035Z,6.13
2023-02-24T21:14:06.020Z,6.33
2023-02-24T21:16:35.817Z,8.07
2023-02-24T21:19:04.113Z,4.83
2023-02-24T21:21:32.297Z,3.93
2023-02-24T21:24:00.890Z,3.50
2023-02-24T21:26:29.214Z,4.20
2023-02-24T21:28:59.330Z,4.47
2023-02-24T21:31:28.783Z,6.13
2023-02-24T21:33:57.728Z,3.97
2023-02-24T21:36:27.923Z,5.93
2023-02-24T21:38:56.612Z,5.07
2023-02-24T21:41:25.295Z,5.53
2023-02-24T21:43:55.762Z,5.73
2023-02-24T21:46:28.455Z,7.60
2023-02-24T21:48:57.714Z,4.80
2023-02-24T21:51:27.267Z,6.13
2023-02-24T21:53:56.718Z,6.43
2023-02-24T21:56:27.766Z,4.17
2023-02-24T21:59:01.357Z,5.73
2023-02-24T22:01:33.944Z,4.93
2023-02-24T22:04:05.189Z,6.03
2023-02-24T22:06:36.253Z,6.00
2023-02-24T22:09:07.404Z,8.00
2023-02-24T22:11:40.722Z,3.70
2023-02-24T22:14:10.376Z,4.57
2023-02-24T22:16:40.669Z,6.17
2023-02-24T22:19:09.651Z,6.07
2023-02-24T22:21:39.234Z,6.37
2023-02-24T22:24:08.294Z,7.70
2023-02-24T22:26:36.456Z,7.07
2023-02-24T22:29:04.912Z,5.27
2023-02-24T22:31:35.173Z,6.83
2023-02-24T22:34:05.870Z,5.07
2023-02-24T22:36:37.726Z,5.83
2023-02-24T22:39:08.858Z,6.17
2023-02-24T22:41:38.135Z,5.37
2023-02-24T22:44:07.330Z,7.87
2023-02-24T22:46:38.790Z,8.37
2023-02-24T22:49:11.378Z,7.10
2023-02-24T22:51:39.601Z,8.03
2023-02-24T22:54:07.774Z,5.40
2023-02-24T22:56:37.849Z,7.23
2023-02-24T22:59:06.117Z,6.77
2023-02-24T23:01:37.333Z,9.07
2023-02-24T23:04:09.387Z,6.90
2023-02-24T23:06:41.711Z,5.87
2023-02-24T23:09:11.092Z,6.90
2023-02-24T23:11:41.832Z,9.33
2023-02-24T23:14:14.661Z,6.77
2023-02-24T23:16:46.428Z,7.10
2023-02-24T23:19:18.666Z,6.03
2023-02-24T23:21:51.041Z,9.77
2023-02-24T23:24:21.643Z,5.80
2023-02-24T23:26:53.782Z,8.63
2023-02-24T23:29:24.184Z,6.87
2023-02-24T23:31:57.301Z,7.30
2023-02-24T23:34:27.123Z,7.10
2023-02-24T23:36:56.740Z,8.20
2023-02-24T23:39:24.873Z,7.50
2023-02-24T23:41:57.460Z,8.00
2023-02-24T23:44:26.280Z,7.90
2023-02-24T23:46:54.694Z,10.53
2023-02-24T23:49:22.886Z,7.23
2023-02-24T23:51:51.119Z,11.13
2023-02-24T23:54:20.879Z,8.97
2023-02-24T23:56:49.207Z,9.00
2023-02-24T23:59:17.386Z,7.67
